sensor_id;sensor_type;location;lat;lon;timestamp;P1;durP1;ratioP1;P2;durP2;ratioP2
38037;SDS011;23843;51.320;12.340;2024-01-10T00:00:16;12.00;;;4.87;;
38037;SDS011;23843;51.320;12.340;2024-01-10T00:02:42;10.77;;;4.30;;
38037;SDS011;23843;51.320;12.340;2024-01-10T00:05:09;12.37;;;4.87;;
38037;SDS011;23843;51.320;12.340;2024-01-10T00:07:34;16.77;;;6.27;;
38037;SDS011;23843;51.320;12.340;2024-01-10T00:10:00;16.37;;;5.90;;
38037;SDS011;23843;51.320;12.340;2024-01-10T00:12:25;11.90;;;4.63;;
38037;SDS011;23843;51.320;12.340;2024-01-10T00:14:51;10.27;;;4.27;;
38037;SDS011;23843;51.320;12.340;2024-01-10T00:17:16;8.70;;;3.13;;
38037;SDS011;23843;51.320;12.340;2024-01-10T00:19:42;10.57;;;3.30;;
38037;SDS011;23843;51.320;12.340;2024-01-10T00:22:09;15.47;;;5.63;;
38037;SDS011;23843;51.320;12.340;2024-01-10T00:24:34;14.23;;;5.37;;
38037;SDS011;23843;51.320;12.340;2024-01-10T00:27:00;13.47;;;5.23;;
38037;SDS011;23843;51.320;12.340;2024-01-10T00:29:25;15.37;;;5.67;;
38037;SDS011;23843;51.320;12.340;2024-01-10T00:31:51;13.90;;;4.73;;
38037;SDS011;23843;51.320;12.340;2024-01-10T00:34:16;14.87;;;4.70;;
38037;SDS011;23843;51.320;12.340;2024-01-10T00:36:42;11.23;;;3.97;;
38037;SDS011;23843;51.320;12.340;2024-01-10T00:39:09;9.60;;;3.77;;
38037;SDS011;23843;51.320;12.340;2024-01-10T00:41:34;7.50;;;3.13;;
38037;SDS011;23843;51.320;12.340;2024-01-10T00:44:00;7.97;;;3.00;;
38037;SDS011;23843;51.320;12.340;2024-01-10T00:46:25;9.80;;;3.67;;
38037;SDS011;23843;51.320;12.340;2024-01-10T00:48:51;10.00;;;3.77;;
38037;SDS011;23843;51.320;12.340;2024-01-10T00:51:16;13.10;;;4.57;;
38037;SDS011;23843;51.320;12.340;2024-01-10T00:53:42;18.87;;;7.10;;
38037;SDS011;23843;51.320;12.340;2024-01-10T00:56:08;17.97;;;7.27;;
38037;SDS011;23843;51.320;12.340;2024-01-10T00:58:35;17.67;;;6.50;;
38037;SDS011;23843;51.320;12.340;2024-01-10T01:01:00;14.97;;;6.43;;
38037;SDS011;23843;51.320;12.340;2024-01-10T01:03:26;17.97;;;6.13;;
38037;SDS011;23843;51.320;12.340;2024-01-10T01:05:51;12.53;;;5.07;;
38037;SDS011;23843;51.320;12.340;2024-01-10T01:08:17;18.53;;;7.00;;
38037;SDS011;23843;51.320;12.340;2024-01-10T01:10:42;14.53;;;5.57;;
38037;SDS011;23843;51.320;12.340;2024-01-10T01:13:09;14.93;;;6.00;;
38037;SDS011;23843;51.320;12.340;2024-01-10T01:15:35;18.27;;;6.57;;
38037;SDS011;23843;51.320;12.340;2024-01-10T01:18:00;17.97;;;5.63;;
38037;SDS011;23843;51.320;12.340;2024-01-10T01:20:26;22.77;;;7.83;;
38037;SDS011;23843;51.320;12.340;2024-01-10T01:22:51;22.70;;;8.43;;
38037;SDS011;23843;51.320;12.340;2024-01-10T01:25:17;21.73;;;8.20;;
38037;SDS011;23843;51.320;12.340;2024-01-10T01:27:42;20.03;;;7.53;;
38037;SDS011;23843;51.320;12.340;2024-01-10T01:30:10;14.03;;;5.57;;
38037;SDS011;23843;51.320;12.340;2024-01-10T01:32:36;21.83;;;6.97;;
38037;SDS011;23843;51.320;12.340;2024-01-10T01:35:01;11.17;;;4.40;;
38037;SDS011;23843;51.320;12.340;2024-01-10T01:37:27;10.90;;;4.73;;
38037;SDS011;23843;51.320;12.340;2024-01-10T01:39:52;11.00;;;4.60;;
38037;SDS011;23843;51.320;12.340;2024-01-10T01:42:18;20.27;;;8.00;;
38037;SDS011;23843;51.320;12.340;2024-01-10T01:44:43;22.10;;;8.77;;
38037;SDS011;23843;51.320;12.340;2024-01-10T01:47:10;20.70;;;7.20;;
38037;SDS011;23843;51.320;12.340;2024-01-10T01:49:36;17.73;;;6.30;;
38037;SDS011;23843;51.320;12.340;2024-01-10T01:52:02;21.00;;;7.47;;
38037;SDS011;23843;51.320;12.340;2024-01-10T01:54:28;16.23;;;6.03;;
38037;SDS011;23843;51.320;12.340;2024-01-10T01:56:56;15.43;;;5.87;;
38037;SDS011;23843;51.320;12.340;2024-01-10T01:59:21;17.30;;;6.30;;
38037;SDS011;23843;51.320;12.340;2024-01-10T02:01:47;14.87;;;5.27;;
38037;SDS011;23843;51.320;12.340;2024-01-10T02:04:14;15.20;;;5.77;;
38037;SDS011;23843;51.320;12.340;2024-01-10T02:06:39;17.50;;;6.70;;
38037;SDS011;23843;51.320;12.340;2024-01-10T02:09:05;14.90;;;5.70;;
38037;SDS011;23843;51.320;12.340;2024-01-10T02:11:30;14.67;;;5.30;;
38037;SDS011;23843;51.320;12.340;2024-01-10T02:13:57;10.60;;;4.30;;
38037;SDS011;23843;51.320;12.340;2024-01-10T02:16:23;7.13;;;3.20;;
38037;SDS011;23843;51.320;12.340;2024-01-10T02:18:48;14.50;;;5.83;;
38037;SDS011;23843;51.320;12.340;2024-01-10T02:21:15;13.37;;;5.43;;
38037;SDS011;23843;51.320;12.340;2024-01-10T02:23:41;13.20;;;4.20;;
38037;SDS011;23843;51.320;12.340;2024-01-10T02:26:08;10.67;;;4.10;;
38037;SDS011;23843;51.320;12.340;2024-01-10T02:28:33;10.20;;;4.27;;
38037;SDS011;23843;51.320;12.340;2024-01-10T02:30:59;8.93;;;3.30;;
38037;SDS011;23843;51.320;12.340;2024-01-10T02:33:25;11.43;;;3.97;;
38037;SDS011;23843;51.320;12.340;2024-01-10T02:35:50;7.97;;;3.07;;
38037;SDS011;23843;51.320;12.340;2024-01-10T02:38:16;12.33;;;4.47;;
38037;SDS011;23843;51.320;12.340;2024-01-10T02:40:42;9.80;;;4.40;;
38037;SDS011;23843;51.320;12.340;2024-01-10T02:43:08;15.07;;;5.73;;
38037;SDS011;23843;51.320;12.340;2024-01-10T02:45:34;16.30;;;6.47;;
38037;SDS011;23843;51.320;12.340;2024-01-10T02:47:59;23.40;;;7.87;;
38037;SDS011;23843;51.320;12.340;2024-01-10T02:50:25;25.10;;;9.57;;
38037;SDS011;23843;51.320;12.340;2024-01-10T02:52:50;21.40;;;8.87;;
38037;SDS011;23843;51.320;12.340;2024-01-10T02:55:16;18.27;;;7.40;;
38037;SDS011;23843;51.320;12.340;2024-01-10T02:57:41;16.87;;;6.23;;
38037;SDS011;23843;51.320;12.340;2024-01-10T03:00:09;18.53;;;6.10;;
38037;SDS011;23843;51.320;12.340;2024-01-10T03:02:35;22.67;;;8.83;;
38037;SDS011;23843;51.320;12.340;2024-01-10T03:05:01;22.40;;;7.53;;
38037;SDS011;23843;51.320;12.340;2024-01-10T03:07:27;25.97;;;9.27;;
38037;SDS011;23843;51.320;12.340;2024-01-10T03:09:52;24.60;;;9.07;;
38037;SDS011;23843;51.320;12.340;2024-01-10T03:12:18;27.27;;;9.93;;
38037;SDS011;23843;51.320;12.340;2024-01-10T03:14:43;24.60;;;8.67;;
38037;SDS011;23843;51.320;12.340;2024-01-10T03:17:10;22.67;;;8.83;;
38037;SDS011;23843;51.320;12.340;2024-01-10T03:19:35;17.30;;;6.57;;
38037;SDS011;23843;51.320;12.340;2024-01-10T03:22:01;22.43;;;7.60;;
38037;SDS011;23843;51.320;12.340;2024-01-10T03:24:27;18.53;;;6.80;;
38037;SDS011;23843;51.320;12.340;2024-01-10T03:26:52;16.17;;;6.47;;
38037;SDS011;23843;51.320;12.340;2024-01-10T03:29:18;10.53;;;4.17;;
38037;SDS011;23843;51.320;12.340;2024-01-10T03:31:43;8.73;;;3.10;;
38037;SDS011;23843;51.320;12.340;2024-01-10T03:34:10;10.83;;;4.37;;
38037;SDS011;23843;51.320;12.340;2024-01-10T03:36:35;12.87;;;4.67;;
38037;SDS011;23843;51.320;12.340;2024-01-10T03:39:01;10.90;;;3.90;;
38037;SDS011;23843;51.320;12.340;2024-01-10T03:41:27;7.87;;;3.20;;
38037;SDS011;23843;51.320;12.340;2024-01-10T03:43:52;6.70;;;3.13;;
38037;SDS011;23843;51.320;12.340;2024-01-10T03:46:18;7.70;;;3.37;;
38037;SDS011;23843;51.320;12.340;2024-01-10T03:48:43;15.20;;;4.80;;
38037;SDS011;23843;51.320;12.340;2024-01-10T03:51:10;18.90;;;5.97;;
38037;SDS011;23843;51.320;12.340;2024-01-10T03:53:35;14.80;;;4.47;;
38037;SDS011;23843;51.320;12.340;2024-01-10T03:56:03;10.27;;;3.27;;
38037;SDS011;23843;51.320;12.340;2024-01-10T03:58:29;11.37;;;3.57;;
38037;SDS011;23843;51.320;12.340;2024-01-10T04:00:54;18.40;;;6.70;;
38037;SDS011;23843;51.320;12.340;2024-01-10T04:03:20;17.00;;;6.13;;
38037;SDS011;23843;51.320;12.340;2024-01-10T04:05:45;17.73;;;6.60;;
38037;SDS011;23843;51.320;12.340;2024-01-10T04:08:12;21.50;;;7.77;;
38037;SDS011;23843;51.320;12.340;2024-01-10T04:10:38;16.87;;;5.90;;
38037;SDS011;23843;51.320;12.340;2024-01-10T04:13:23;22.33;;;7.60;;
38037;SDS011;23843;51.320;12.340;2024-01-10T04:15:59;16.90;;;6.20;;
38037;SDS011;23843;51.320;12.340;2024-01-10T04:18:45;15.77;;;5.70;;
38037;SDS011;23843;51.320;12.340;2024-01-10T04:21:11;14.70;;;5.50;;
38037;SDS011;23843;51.320;12.340;2024-01-10T04:23:38;15.63;;;5.47;;
38037;SDS011;23843;51.320;12.340;2024-01-10T04:26:03;21.30;;;7.00;;
38037;SDS011;23843;51.320;12.340;2024-01-10T04:28:29;12.83;;;5.30;;
38037;SDS011;23843;51.320;12.340;2024-01-10T04:30:54;14.50;;;4.53;;
38037;SDS011;23843;51.320;12.340;2024-01-10T04:33:20;11.10;;;4.40;;
38037;SDS011;23843;51.320;12.340;2024-01-10T04:35:45;9.00;;;3.80;;
38037;SDS011;23843;51.320;12.340;2024-01-10T04:38:11;6.63;;;2.67;;
38037;SDS011;23843;51.320;12.340;2024-01-10T04:40:38;7.70;;;2.90;;
38037;SDS011;23843;51.320;12.340;2024-01-10T04:43:03;11.97;;;4.40;;
38037;SDS011;23843;51.320;12.340;2024-01-10T04:45:29;17.47;;;6.27;;
38037;SDS011;23843;51.320;12.340;2024-01-10T04:47:54;13.73;;;5.00;;
38037;SDS011;23843;51.320;12.340;2024-01-10T04:50:20;10.00;;;3.57;;
38037;SDS011;23843;51.320;12.340;2024-01-10T04:52:45;6.20;;;2.67;;
38037;SDS011;23843;51.320;12.340;2024-01-10T04:55:11;8.67;;;2.67;;
38037;SDS011;23843;51.320;12.340;2024-01-10T04:57:38;10.73;;;3.27;;
38037;SDS011;23843;51.320;12.340;2024-01-10T05:00:03;12.93;;;4.60;;
38037;SDS011;23843;51.320;12.340;2024-01-10T05:02:30;11.97;;;4.30;;
38037;SDS011;23843;51.320;12.340;2024-01-10T05:04:55;8.57;;;3.53;;
38037;SDS011;23843;51.320;12.340;2024-01-10T05:07:21;7.43;;;3.27;;
38037;SDS011;23843;51.320;12.340;2024-01-10T05:09:46;6.60;;;2.60;;
38037;SDS011;23843;51.320;12.340;2024-01-10T05:12:12;5.20;;;2.00;;
38037;SDS011;23843;51.320;12.340;2024-01-10T05:14:39;13.57;;;4.87;;
38037;SDS011;23843;51.320;12.340;2024-01-10T05:17:04;16.83;;;5.90;;
38037;SDS011;23843;51.320;12.340;2024-01-10T05:19:29;20.20;;;6.70;;
38037;SDS011;23843;51.320;12.340;2024-01-10T05:21:55;15.17;;;6.00;;
38037;SDS011;23843;51.320;12.340;2024-01-10T05:24:21;11.13;;;4.00;;
38037;SDS011;23843;51.320;12.340;2024-01-10T05:26:46;8.07;;;3.03;;
38037;SDS011;23843;51.320;12.340;2024-01-10T05:29:12;13.27;;;4.63;;
38037;SDS011;23843;51.320;12.340;2024-01-10T05:31:38;11.07;;;4.03;;
38037;SDS011;23843;51.320;12.340;2024-01-10T05:34:04;11.00;;;3.50;;
38037;SDS011;23843;51.320;12.340;2024-01-10T05:36:29;14.63;;;5.40;;
38037;SDS011;23843;51.320;12.340;2024-01-10T05:38:55;9.87;;;4.00;;
38037;SDS011;23843;51.320;12.340;2024-01-10T05:41:20;8.33;;;3.07;;
38037;SDS011;23843;51.320;12.340;2024-01-10T05:43:46;6.20;;;2.20;;
38037;SDS011;23843;51.320;12.340;2024-01-10T05:46:11;8.40;;;2.87;;
38037;SDS011;23843;51.320;12.340;2024-01-10T05:48:38;10.47;;;3.40;;
38037;SDS011;23843;51.320;12.340;2024-01-10T05:51:04;9.10;;;3.37;;
38037;SDS011;23843;51.320;12.340;2024-01-10T05:53:29;6.83;;;2.60;;
38037;SDS011;23843;51.320;12.340;2024-01-10T05:55:55;12.27;;;4.27;;
38037;SDS011;23843;51.320;12.340;2024-01-10T05:58:20;20.17;;;7.00;;
38037;SDS011;23843;51.320;12.340;2024-01-10T06:00:46;21.30;;;7.83;;
38037;SDS011;23843;51.320;12.340;2024-01-10T06:03:12;26.00;;;9.03;;
38037;SDS011;23843;51.320;12.340;2024-01-10T06:05:39;32.03;;;9.73;;
38037;SDS011;23843;51.320;12.340;2024-01-10T06:08:04;24.20;;;8.93;;
38037;SDS011;23843;51.320;12.340;2024-01-10T06:10:30;29.93;;;9.70;;
38037;SDS011;23843;51.320;12.340;2024-01-10T06:12:56;29.40;;;10.57;;
38037;SDS011;23843;51.320;12.340;2024-01-10T06:15:21;32.03;;;11.23;;
38037;SDS011;23843;51.320;12.340;2024-01-10T06:17:47;32.70;;;12.87;;
38037;SDS011;23843;51.320;12.340;2024-01-10T06:20:12;37.53;;;12.63;;
38037;SDS011;23843;51.320;12.340;2024-01-10T06:22:39;35.40;;;12.97;;
38037;SDS011;23843;51.320;12.340;2024-01-10T06:25:05;26.77;;;8.53;;
38037;SDS011;23843;51.320;12.340;2024-01-10T06:27:31;21.43;;;7.93;;
38037;SDS011;23843;51.320;12.340;2024-01-10T06:29:57;20.43;;;6.83;;
38037;SDS011;23843;51.320;12.340;2024-01-10T06:32:22;25.20;;;8.83;;
38037;SDS011;23843;51.320;12.340;2024-01-10T06:34:48;21.27;;;7.97;;
38037;SDS011;23843;51.320;12.340;2024-01-10T06:37:13;27.60;;;9.87;;
38037;SDS011;23843;51.320;12.340;2024-01-10T06:39:40;25.43;;;8.77;;
38037;SDS011;23843;51.320;12.340;2024-01-10T06:42:06;25.83;;;9.97;;
38037;SDS011;23843;51.320;12.340;2024-01-10T06:44:32;29.90;;;11.10;;
38037;SDS011;23843;51.320;12.340;2024-01-10T06:46:57;22.47;;;8.03;;
38037;SDS011;23843;51.320;12.340;2024-01-10T06:49:23;15.93;;;6.07;;
38037;SDS011;23843;51.320;12.340;2024-01-10T06:51:48;17.83;;;6.50;;
38037;SDS011;23843;51.320;12.340;2024-01-10T06:54:14;27.70;;;8.13;;
38037;SDS011;23843;51.320;12.340;2024-01-10T06:56:41;22.57;;;7.23;;
38037;SDS011;23843;51.320;12.340;2024-01-10T06:59:06;21.73;;;7.53;;
38037;SDS011;23843;51.320;12.340;2024-01-10T07:01:32;16.93;;;6.83;;
38037;SDS011;23843;51.320;12.340;2024-01-10T07:03:57;12.53;;;4.97;;
38037;SDS011;23843;51.320;12.340;2024-01-10T07:06:22;12.00;;;4.43;;
38037;SDS011;23843;51.320;12.340;2024-01-10T07:08:48;9.30;;;4.00;;
38037;SDS011;23843;51.320;12.340;2024-01-10T07:11:14;17.93;;;4.67;;
38037;SDS011;23843;51.320;12.340;2024-01-10T07:13:41;8.77;;;3.37;;
38037;SDS011;23843;51.320;12.340;2024-01-10T07:16:07;13.87;;;5.30;;
38037;SDS011;23843;51.320;12.340;2024-01-10T07:18:33;10.43;;;4.07;;
38037;SDS011;23843;51.320;12.340;2024-01-10T07:20:59;7.90;;;2.77;;
38037;SDS011;23843;51.320;12.340;2024-01-10T07:23:24;6.77;;;2.70;;
38037;SDS011;23843;51.320;12.340;2024-01-10T07:25:50;11.60;;;4.13;;
38037;SDS011;23843;51.320;12.340;2024-01-10T07:28:15;11.17;;;3.67;;
38037;SDS011;23843;51.320;12.340;2024-01-10T07:30:42;10.97;;;3.53;;
38037;SDS011;23843;51.320;12.340;2024-01-10T07:33:08;7.40;;;3.30;;
38037;SDS011;23843;51.320;12.340;2024-01-10T07:35:34;10.30;;;3.83;;
38037;SDS011;23843;51.320;12.340;2024-01-10T07:37:59;8.03;;;2.70;;
38037;SDS011;23843;51.320;12.340;2024-01-10T07:40:24;9.10;;;3.70;;
38037;SDS011;23843;51.320;12.340;2024-01-10T07:42:50;11.10;;;4.87;;
38037;SDS011;23843;51.320;12.340;2024-01-10T07:45:15;10.33;;;3.80;;
38037;SDS011;23843;51.320;12.340;2024-01-10T07:47:42;13.27;;;4.93;;
38037;SDS011;23843;51.320;12.340;2024-01-10T07:50:08;11.43;;;3.93;;
38037;SDS011;23843;51.320;12.340;2024-01-10T07:52:35;9.10;;;3.53;;
38037;SDS011;23843;51.320;12.340;2024-01-10T07:55:01;7.80;;;2.90;;
38037;SDS011;23843;51.320;12.340;2024-01-10T07:57:28;6.20;;;2.50;;
38037;SDS011;23843;51.320;12.340;2024-01-10T08:00:02;6.40;;;2.77;;
38037;SDS011;23843;51.320;12.340;2024-01-10T08:02:28;14.93;;;5.37;;
38037;SDS011;23843;51.320;12.340;2024-01-10T08:04:55;13.10;;;4.80;;
38037;SDS011;23843;51.320;12.340;2024-01-10T08:07:21;14.30;;;4.87;;
38037;SDS011;23843;51.320;12.340;2024-01-10T08:09:46;13.17;;;4.20;;
38037;SDS011;23843;51.320;12.340;2024-01-10T08:12:12;11.17;;;4.57;;
38037;SDS011;23843;51.320;12.340;2024-01-10T08:14:37;11.90;;;4.47;;
38037;SDS011;23843;51.320;12.340;2024-01-10T08:17:03;8.20;;;3.70;;
38037;SDS011;23843;51.320;12.340;2024-01-10T08:19:29;9.47;;;3.37;;
38037;SDS011;23843;51.320;12.340;2024-01-10T08:21:56;9.37;;;3.97;;
38037;SDS011;23843;51.320;12.340;2024-01-10T08:24:21;11.50;;;3.83;;
38037;SDS011;23843;51.320;12.340;2024-01-10T08:26:47;13.37;;;5.10;;
38037;SDS011;23843;51.320;12.340;2024-01-10T08:29:13;10.90;;;4.43;;
38037;SDS011;23843;51.320;12.340;2024-01-10T08:31:38;9.73;;;4.17;;
38037;SDS011;23843;51.320;12.340;2024-01-10T08:34:04;10.00;;;3.43;;
38037;SDS011;23843;51.320;12.340;2024-01-10T08:36:30;9.80;;;4.23;;
38037;SDS011;23843;51.320;12.340;2024-01-10T08:38:56;10.27;;;4.13;;
38037;SDS011;23843;51.320;12.340;2024-01-10T08:41:22;9.57;;;4.17;;
38037;SDS011;23843;51.320;12.340;2024-01-10T08:43:47;21.23;;;9.47;;
38037;SDS011;23843;51.320;12.340;2024-01-10T08:46:13;18.27;;;8.20;;
38037;SDS011;23843;51.320;12.340;2024-01-10T08:48:38;16.47;;;7.07;;
38037;SDS011;23843;51.320;12.340;2024-01-10T08:51:04;19.13;;;8.17;;
38037;SDS011;23843;51.320;12.340;2024-01-10T08:53:30;12.53;;;6.07;;
38037;SDS011;23843;51.320;12.340;2024-01-10T08:55:56;11.77;;;5.60;;
38037;SDS011;23843;51.320;12.340;2024-01-10T08:58:22;12.07;;;5.50;;
38037;SDS011;23843;51.320;12.340;2024-01-10T09:00:47;13.70;;;6.20;;
38037;SDS011;23843;51.320;12.340;2024-01-10T09:03:13;11.97;;;5.20;;
38037;SDS011;23843;51.320;12.340;2024-01-10T09:05:39;11.53;;;5.43;;
38037;SDS011;23843;51.320;12.340;2024-01-10T09:08:04;28.47;;;8.17;;
38037;SDS011;23843;51.320;12.340;2024-01-10T09:10:30;16.00;;;7.10;;
38037;SDS011;23843;51.320;12.340;2024-01-10T09:12:57;11.50;;;5.43;;
38037;SDS011;23843;51.320;12.340;2024-01-10T09:15:23;11.37;;;4.37;;
38037;SDS011;23843;51.320;12.340;2024-01-10T09:17:49;9.50;;;4.23;;
38037;SDS011;23843;51.320;12.340;2024-01-10T09:20:14;10.20;;;4.47;;
38037;SDS011;23843;51.320;12.340;2024-01-10T09:22:40;11.20;;;4.63;;
38037;SDS011;23843;51.320;12.340;2024-01-10T09:25:05;13.37;;;5.70;;
38037;SDS011;23843;51.320;12.340;2024-01-10T09:27:31;14.17;;;5.53;;
38037;SDS011;23843;51.320;12.340;2024-01-10T09:29:58;9.23;;;4.37;;
38037;SDS011;23843;51.320;12.340;2024-01-10T09:32:24;9.60;;;4.63;;
38037;SDS011;23843;51.320;12.340;2024-01-10T09:34:49;10.80;;;4.30;;
38037;SDS011;23843;51.320;12.340;2024-01-10T09:37:15;10.50;;;4.67;;
38037;SDS011;23843;51.320;12.340;2024-01-10T09:39:40;12.07;;;5.63;;
38037;SDS011;23843;51.320;12.340;2024-01-10T09:42:06;10.17;;;4.40;;
38037;SDS011;23843;51.320;12.340;2024-01-10T09:44:32;9.20;;;4.07;;
38037;SDS011;23843;51.320;12.340;2024-01-10T09:46:59;9.87;;;4.30;;
38037;SDS011;23843;51.320;12.340;2024-01-10T09:49:26;7.47;;;3.67;;
38037;SDS011;23843;51.320;12.340;2024-01-10T09:51:53;10.73;;;4.47;;
38037;SDS011;23843;51.320;12.340;2024-01-10T09:54:23;12.27;;;5.40;;
38037;SDS011;23843;51.320;12.340;2024-01-10T09:56:51;11.60;;;4.67;;
38037;SDS011;23843;51.320;12.340;2024-01-10T09:59:16;9.93;;;4.50;;
38037;SDS011;23843;51.320;12.340;2024-01-10T10:01:42;12.40;;;4.70;;
38037;SDS011;23843;51.320;12.340;2024-01-10T10:04:11;10.57;;;4.30;;
38037;SDS011;23843;51.320;12.340;2024-01-10T10:06:37;11.70;;;4.80;;
38037;SDS011;23843;51.320;12.340;2024-01-10T10:09:03;14.67;;;6.30;;
38037;SDS011;23843;51.320;12.340;2024-01-10T10:11:28;13.80;;;5.57;;
38037;SDS011;23843;51.320;12.340;2024-01-10T10:13:54;14.63;;;5.80;;
38037;SDS011;23843;51.320;12.340;2024-01-10T10:16:22;10.50;;;4.47;;
38037;SDS011;23843;51.320;12.340;2024-01-10T10:18:48;12.67;;;5.33;;
38037;SDS011;23843;51.320;12.340;2024-01-10T10:21:16;14.03;;;6.43;;
38037;SDS011;23843;51.320;12.340;2024-01-10T10:23:42;16.67;;;6.90;;
38037;SDS011;23843;51.320;12.340;2024-01-10T10:26:15;16.47;;;7.37;;
38037;SDS011;23843;51.320;12.340;2024-01-10T10:28:41;12.03;;;5.67;;
38037;SDS011;23843;51.320;12.340;2024-01-10T10:31:07;18.40;;;8.13;;
38037;SDS011;23843;51.320;12.340;2024-01-10T10:33:32;19.20;;;8.47;;
38037;SDS011;23843;51.320;12.340;2024-01-10T10:35:58;23.17;;;9.73;;
38037;SDS011;23843;51.320;12.340;2024-01-10T10:38:25;24.93;;;9.47;;
38037;SDS011;23843;51.320;12.340;2024-01-10T10:40:50;21.37;;;8.47;;
38037;SDS011;23843;51.320;12.340;2024-01-10T10:43:16;16.70;;;6.90;;
38037;SDS011;23843;51.320;12.340;2024-01-10T10:45:45;16.27;;;6.80;;
38037;SDS011;23843;51.320;12.340;2024-01-10T10:48:14;14.70;;;6.00;;
38037;SDS011;23843;51.320;12.340;2024-01-10T10:50:43;18.43;;;7.70;;
38037;SDS011;23843;51.320;12.340;2024-01-10T10:53:15;18.43;;;7.83;;
38037;SDS011;23843;51.320;12.340;2024-01-10T10:55:44;16.70;;;7.27;;
38037;SDS011;23843;51.320;12.340;2024-01-10T10:58:12;16.63;;;6.77;;
38037;SDS011;23843;51.320;12.340;2024-01-10T11:00:39;15.97;;;6.93;;
38037;SDS011;23843;51.320;12.340;2024-01-10T11:03:07;21.97;;;10.10;;
38037;SDS011;23843;51.320;12.340;2024-01-10T11:05:34;22.90;;;10.50;;
38037;SDS011;23843;51.320;12.340;2024-01-10T11:08:01;19.17;;;8.90;;
38037;SDS011;23843;51.320;12.340;2024-01-10T11:10:29;17.43;;;7.67;;
38037;SDS011;23843;51.320;12.340;2024-01-10T11:13:07;19.03;;;8.63;;
38037;SDS011;23843;51.320;12.340;2024-01-10T11:15:47;16.30;;;7.47;;
38037;SDS011;23843;51.320;12.340;2024-01-10T11:18:31;18.43;;;7.67;;
38037;SDS011;23843;51.320;12.340;2024-01-10T11:21:16;26.30;;;10.80;;
38037;SDS011;23843;51.320;12.340;2024-01-10T11:23:47;20.27;;;7.93;;
38037;SDS011;23843;51.320;12.340;2024-01-10T11:26:15;20.20;;;9.10;;
38037;SDS011;23843;51.320;12.340;2024-01-10T11:28:42;20.83;;;9.33;;
38037;SDS011;23843;51.320;12.340;2024-01-10T11:31:08;19.37;;;8.57;;
38037;SDS011;23843;51.320;12.340;2024-01-10T11:33:34;15.60;;;7.17;;
38037;SDS011;23843;51.320;12.340;2024-01-10T11:38:48;25.20;;;10.57;;
38037;SDS011;23843;51.320;12.340;2024-01-10T11:41:16;15.43;;;7.10;;
38037;SDS011;23843;51.320;12.340;2024-01-10T11:43:47;14.83;;;6.57;;
38037;SDS011;23843;51.320;12.340;2024-01-10T11:46:52;20.43;;;8.90;;
38037;SDS011;23843;51.320;12.340;2024-01-10T11:49:19;14.73;;;7.27;;
38037;SDS011;23843;51.320;12.340;2024-01-10T11:51:46;18.70;;;8.00;;
38037;SDS011;23843;51.320;12.340;2024-01-10T11:54:12;14.87;;;6.87;;
38037;SDS011;23843;51.320;12.340;2024-01-10T11:57:01;17.57;;;7.27;;
38037;SDS011;23843;51.320;12.340;2024-01-10T11:59:28;22.33;;;9.80;;
38037;SDS011;23843;51.320;12.340;2024-01-10T12:01:54;22.57;;;9.90;;
38037;SDS011;23843;51.320;12.340;2024-01-10T12:04:20;18.17;;;8.00;;
38037;SDS011;23843;51.320;12.340;2024-01-10T12:06:46;12.93;;;6.33;;
38037;SDS011;23843;51.320;12.340;2024-01-10T12:09:12;19.33;;;8.50;;
38037;SDS011;23843;51.320;12.340;2024-01-10T12:11:38;16.10;;;6.53;;
38037;SDS011;23843;51.320;12.340;2024-01-10T12:14:04;17.77;;;8.63;;
38037;SDS011;23843;51.320;12.340;2024-01-10T12:16:31;23.63;;;9.43;;
38037;SDS011;23843;51.320;12.340;2024-01-10T12:18:57;18.03;;;8.37;;
38037;SDS011;23843;51.320;12.340;2024-01-10T12:21:23;18.10;;;8.53;;
38037;SDS011;23843;51.320;12.340;2024-01-10T12:23:48;21.90;;;8.67;;
38037;SDS011;23843;51.320;12.340;2024-01-10T12:26:15;25.20;;;10.90;;
38037;SDS011;23843;51.320;12.340;2024-01-10T12:28:40;19.30;;;8.70;;
38037;SDS011;23843;51.320;12.340;2024-01-10T12:31:18;19.50;;;8.50;;
38037;SDS011;23843;51.320;12.340;2024-01-10T12:33:45;20.57;;;7.97;;
38037;SDS011;23843;51.320;12.340;2024-01-10T12:36:12;15.50;;;7.27;;
38037;SDS011;23843;51.320;12.340;2024-01-10T12:38:38;15.63;;;6.87;;
38037;SDS011;23843;51.320;12.340;2024-01-10T12:41:04;12.93;;;6.80;;
38037;SDS011;23843;51.320;12.340;2024-01-10T12:43:30;13.40;;;6.03;;
38037;SDS011;23843;51.320;12.340;2024-01-10T12:46:02;13.30;;;6.37;;
38037;SDS011;23843;51.320;12.340;2024-01-10T12:48:28;16.07;;;7.17;;
38037;SDS011;23843;51.320;12.340;2024-01-10T12:50:55;14.03;;;6.33;;
38037;SDS011;23843;51.320;12.340;2024-01-10T12:53:21;18.00;;;7.37;;
38037;SDS011;23843;51.320;12.340;2024-01-10T12:55:47;16.93;;;7.23;;
38037;SDS011;23843;51.320;12.340;2024-01-10T12:58:12;15.23;;;7.13;;
38037;SDS011;23843;51.320;12.340;2024-01-10T13:00:38;12.83;;;5.83;;
38037;SDS011;23843;51.320;12.340;2024-01-10T13:03:03;13.30;;;6.00;;
38037;SDS011;23843;51.320;12.340;2024-01-10T13:05:29;19.67;;;8.40;;
38037;SDS011;23843;51.320;12.340;2024-01-10T13:07:56;17.30;;;7.50;;
38037;SDS011;23843;51.320;12.340;2024-01-10T13:10:21;15.53;;;7.33;;
38037;SDS011;23843;51.320;12.340;2024-01-10T13:12:47;17.30;;;8.40;;
38037;SDS011;23843;51.320;12.340;2024-01-10T13:15:12;18.97;;;8.10;;
38037;SDS011;23843;51.320;12.340;2024-01-10T13:17:38;16.07;;;7.40;;
38037;SDS011;23843;51.320;12.340;2024-01-10T13:20:04;17.33;;;7.47;;
38037;SDS011;23843;51.320;12.340;2024-01-10T13:22:29;15.23;;;6.80;;
38037;SDS011;23843;51.320;12.340;2024-01-10T13:24:56;17.73;;;7.67;;
38037;SDS011;23843;51.320;12.340;2024-01-10T13:27:22;21.53;;;9.33;;
38037;SDS011;23843;51.320;12.340;2024-01-10T13:29:47;25.40;;;10.53;;
38037;SDS011;23843;51.320;12.340;2024-01-10T13:32:13;24.63;;;10.70;;
38037;SDS011;23843;51.320;12.340;2024-01-10T13:34:38;18.43;;;7.93;;
38037;SDS011;23843;51.320;12.340;2024-01-10T13:37:04;17.60;;;8.03;;
38037;SDS011;23843;51.320;12.340;2024-01-10T13:39:29;18.33;;;7.40;;
38037;SDS011;23843;51.320;12.340;2024-01-10T13:41:56;16.57;;;7.73;;
38037;SDS011;23843;51.320;12.340;2024-01-10T13:44:22;18.20;;;7.83;;
38037;SDS011;23843;51.320;12.340;2024-01-10T13:46:47;19.27;;;8.77;;
38037;SDS011;23843;51.320;12.340;2024-01-10T13:49:13;19.23;;;8.13;;
38037;SDS011;23843;51.320;12.340;2024-01-10T13:51:38;21.80;;;9.37;;
38037;SDS011;23843;51.320;12.340;2024-01-10T13:54:04;22.20;;;10.47;;
38037;SDS011;23843;51.320;12.340;2024-01-10T13:56:29;21.57;;;9.53;;
38037;SDS011;23843;51.320;12.340;2024-01-10T13:58:56;22.67;;;10.00;;
38037;SDS011;23843;51.320;12.340;2024-01-10T14:01:22;21.83;;;9.53;;
38037;SDS011;23843;51.320;12.340;2024-01-10T14:03:47;18.23;;;8.50;;
38037;SDS011;23843;51.320;12.340;2024-01-10T14:06:13;15.37;;;6.50;;
38037;SDS011;23843;51.320;12.340;2024-01-10T14:08:38;14.70;;;6.07;;
38037;SDS011;23843;51.320;12.340;2024-01-10T14:11:04;16.50;;;6.33;;
38037;SDS011;23843;51.320;12.340;2024-01-10T14:13:29;21.13;;;8.47;;
38037;SDS011;23843;51.320;12.340;2024-01-10T14:15:56;21.80;;;8.47;;
38037;SDS011;23843;51.320;12.340;2024-01-10T14:18:21;20.87;;;8.87;;
38037;SDS011;23843;51.320;12.340;2024-01-10T14:20:47;16.10;;;7.43;;